Bewerina — OG8966 — position and weather

sailwx.info

Track history (hours):
 
Tides and Currents Weather Stations Pressure Air Temp Water Temp Dewpoint Dewpoint Depression Visibility Wind Speed Wind Dir Waves Ship Positions

Bewerina

Last reported at 2014-Sep-01 12:12 UTC. Time now 2014-Sep-02 02:03 UTC.
Position N 60°10' E 024°51'.

Length 14 m.

Type: Pleasure craft. MMSI: 230940960.

Date/timePositionNaut miles runAvg speedWind from/ knotsBaromVisibWave heightAir tempDewpointWater temp
2014-Sep-01 12:12N 60°10' E 024°51'0 0.0
2014-Sep-01 07:12N 60°10' E 024°51'0 0.0
2014-Sep-01 04:27N 60°10' E 024°51'0 0.0
2014-Sep-01 03:25N 60°10' E 024°51'0 0.0
2014-Aug-31 16:21N 60°10' E 024°51'0 0.0
2014-Aug-31 13:27N 60°10' E 024°51'4021.1
2014-Aug-31 11:33N 59°30' E 024°45'3 3.4
2014-Aug-31 10:33N 59°27' E 024°45'0 0.0
2014-Aug-31 09:33N 59°27' E 024°45'0 0.0
2014-Aug-31 08:27N 59°27' E 024°45'0 0.0
2014-Aug-31 07:33N 59°27' E 024°45'0 0.0
2014-Aug-31 06:33N 59°27' E 024°45'0 0.0
2014-Aug-31 05:33N 59°27' E 024°45'0 0.0
2014-Aug-31 04:33N 59°27' E 024°45'0 0.0
2014-Aug-31 03:24N 59°27' E 024°45'0 0.0
2014-Aug-31 02:33N 59°27' E 024°45'0 0.0
2014-Aug-31 01:27N 59°27' E 024°45'0 0.0
2014-Aug-31 00:24N 59°27' E 024°45'0 0.0
2014-Aug-30 23:33N 59°27' E 024°45'0 0.0
2014-Aug-30 22:33N 59°27' E 024°45'0 0.0
2014-Aug-30 21:30N 59°27' E 024°45'0 0.0
2014-Aug-30 20:33N 59°27' E 024°45'0 0.0
2014-Aug-30 19:27N 59°27' E 024°45'0 0.0
2014-Aug-30 18:33N 59°27' E 024°45'0 0.0
2014-Aug-30 17:33N 59°27' E 024°45'0 0.0
2014-Aug-30 16:30N 59°27' E 024°45'0 0.0
2014-Aug-30 15:33N 59°27' E 024°45'0 0.0
2014-Aug-30 14:07N 59°27' E 024°45'0 0.0
2014-Aug-30 13:31N 59°27' E 024°45'0 0.0
2014-Aug-30 12:25N 59°27' E 024°45'0 0.4
2014-Aug-30 11:33N 59°27' E 024°46'43 2.1
2014-Aug-29 15:04N 60°10' E 024°51'0 0.0
2014-Aug-29 14:13N 60°10' E 024°51'0 0.0
2014-Aug-29 11:22N 60°10' E 024°51'0 0.0
2014-Aug-29 09:10N 60°10' E 024°51'0 0.0
2014-Aug-29 08:13N 60°10' E 024°51'0 0.0
2014-Aug-29 07:10N 60°10' E 024°51'0 0.0
2014-Aug-29 06:04N 60°10' E 024°51'0 0.0
2014-Aug-29 05:31N 60°10' E 024°51'0 0.0
2014-Aug-29 04:16N 60°10' E 024°51'0 0.0
2014-Aug-29 03:28N 60°10' E 024°51'0 0.0
2014-Aug-28 16:28N 60°10' E 024°51'0 0.0
2014-Aug-28 15:16N 60°10' E 024°51'0 0.0
2014-Aug-28 10:18N 60°10' E 024°51'0 0.0
2014-Aug-28 07:21N 60°10' E 024°51'0 0.0
2014-Aug-28 05:24N 60°10' E 024°51'0 0.0
2014-Aug-28 04:15N 60°10' E 024°51'0 0.0
2014-Aug-28 03:03N 60°10' E 024°51'0 0.0
2014-Aug-27 17:24N 60°10' E 024°51'0 0.0
2014-Aug-27 16:30N 60°10' E 024°51'0 0.0
2014-Aug-27 15:33N 60°10' E 024°51'0 0.0
2014-Aug-27 14:18N 60°10' E 024°51'0 0.0
2014-Aug-27 13:24N 60°10' E 024°51'0 0.0
2014-Aug-27 12:18N 60°10' E 024°51'0 0.0
2014-Aug-27 10:10N 60°10' E 024°51'0 0.0
2014-Aug-26 17:17N 60°10' E 024°51'2 0.2
2014-Aug-26 05:08N 60°08' E 024°54'2 1.2
2014-Aug-26 03:29N 60°10' E 024°51'0 0.0
2014-Aug-25 17:28N 60°10' E 024°51'0 0.0
2014-Aug-25 16:25N 60°10' E 024°51'0 0.0
2014-Aug-25 15:31N 60°10' E 024°51'0 0.2
2014-Aug-25 14:32N 60°10' E 024°50'0 0.1
2014-Aug-25 11:28N 60°10' E 024°51'0 0.0
2014-Aug-25 10:22N 60°10' E 024°51'0 0.0
2014-Aug-25 09:22N 60°10' E 024°51'0 0.0
2014-Aug-25 07:07N 60°10' E 024°51'0 0.0
2014-Aug-25 04:07N 60°10' E 024°51'0 0.0
2014-Aug-24 16:31N 60°10' E 024°51'0 0.0
2014-Aug-24 15:19N 60°10' E 024°51'4712.4
2014-Aug-24 11:32N 59°51' E 023°25'  
Track history (hours):
 
Tides and Currents Weather Stations Pressure Air Temp Water Temp Dewpoint Dewpoint Depression Visibility Wind Speed Wind Dir Waves Ship Positions

Bewerina

Last reported at 2014-Sep-01 12:12 UTC. Time now 2014-Sep-02 02:03 UTC.
Position N 60°10' E 024°51'.

Length 14 m.

Type: Pleasure craft. MMSI: 230940960.

Date/timePositionNaut miles runAvg speedWind from/ knotsBaromVisibWave heightAir tempDewpointWater temp
2014-Sep-01 12:12N 60°10' E 024°51'0 0.0
2014-Sep-01 07:12N 60°10' E 024°51'0 0.0
2014-Sep-01 04:27N 60°10' E 024°51'0 0.0
2014-Sep-01 03:25N 60°10' E 024°51'0 0.0
2014-Aug-31 16:21N 60°10' E 024°51'0 0.0
2014-Aug-31 13:27N 60°10' E 024°51'4021.1
2014-Aug-31 11:33N 59°30' E 024°45'3 3.4
2014-Aug-31 10:33N 59°27' E 024°45'0 0.0
2014-Aug-31 09:33N 59°27' E 024°45'0 0.0
2014-Aug-31 08:27N 59°27' E 024°45'0 0.0
2014-Aug-31 07:33N 59°27' E 024°45'0 0.0
2014-Aug-31 06:33N 59°27' E 024°45'0 0.0
2014-Aug-31 05:33N 59°27' E 024°45'0 0.0
2014-Aug-31 04:33N 59°27' E 024°45'0 0.0
2014-Aug-31 03:24N 59°27' E 024°45'0 0.0
2014-Aug-31 02:33N 59°27' E 024°45'0 0.0
2014-Aug-31 01:27N 59°27' E 024°45'0 0.0
2014-Aug-31 00:24N 59°27' E 024°45'0 0.0
2014-Aug-30 23:33N 59°27' E 024°45'0 0.0
2014-Aug-30 22:33N 59°27' E 024°45'0 0.0
2014-Aug-30 21:30N 59°27' E 024°45'0 0.0
2014-Aug-30 20:33N 59°27' E 024°45'0 0.0
2014-Aug-30 19:27N 59°27' E 024°45'0 0.0
2014-Aug-30 18:33N 59°27' E 024°45'0 0.0
2014-Aug-30 17:33N 59°27' E 024°45'0 0.0
2014-Aug-30 16:30N 59°27' E 024°45'0 0.0
2014-Aug-30 15:33N 59°27' E 024°45'0 0.0
2014-Aug-30 14:07N 59°27' E 024°45'0 0.0
2014-Aug-30 13:31N 59°27' E 024°45'0 0.0
2014-Aug-30 12:25N 59°27' E 024°45'0 0.4
2014-Aug-30 11:33N 59°27' E 024°46'43 2.1
2014-Aug-29 15:04N 60°10' E 024°51'0 0.0
2014-Aug-29 14:13N 60°10' E 024°51'0 0.0
2014-Aug-29 11:22N 60°10' E 024°51'0 0.0
2014-Aug-29 09:10N 60°10' E 024°51'0 0.0
2014-Aug-29 08:13N 60°10' E 024°51'0 0.0
2014-Aug-29 07:10N 60°10' E 024°51'0 0.0
2014-Aug-29 06:04N 60°10' E 024°51'0 0.0
2014-Aug-29 05:31N 60°10' E 024°51'0 0.0
2014-Aug-29 04:16N 60°10' E 024°51'0 0.0
2014-Aug-29 03:28N 60°10' E 024°51'0 0.0
2014-Aug-28 16:28N 60°10' E 024°51'0 0.0
2014-Aug-28 15:16N 60°10' E 024°51'0 0.0
2014-Aug-28 10:18N 60°10' E 024°51'0 0.0
2014-Aug-28 07:21N 60°10' E 024°51'0 0.0
2014-Aug-28 05:24N 60°10' E 024°51'0 0.0
2014-Aug-28 04:15N 60°10' E 024°51'0 0.0
2014-Aug-28 03:03N 60°10' E 024°51'0 0.0
2014-Aug-27 17:24N 60°10' E 024°51'0 0.0
2014-Aug-27 16:30N 60°10' E 024°51'0 0.0
2014-Aug-27 15:33N 60°10' E 024°51'0 0.0
2014-Aug-27 14:18N 60°10' E 024°51'0 0.0
2014-Aug-27 13:24N 60°10' E 024°51'0 0.0
2014-Aug-27 12:18N 60°10' E 024°51'0 0.0
2014-Aug-27 10:10N 60°10' E 024°51'0 0.0
2014-Aug-26 17:17N 60°10' E 024°51'2 0.2
2014-Aug-26 05:08N 60°08' E 024°54'2 1.2
2014-Aug-26 03:29N 60°10' E 024°51'0 0.0
2014-Aug-25 17:28N 60°10' E 024°51'0 0.0
2014-Aug-25 16:25N 60°10' E 024°51'0 0.0
2014-Aug-25 15:31N 60°10' E 024°51'0 0.2
2014-Aug-25 14:32N 60°10' E 024°50'0 0.1
2014-Aug-25 11:28N 60°10' E 024°51'0 0.0
2014-Aug-25 10:22N 60°10' E 024°51'0 0.0
2014-Aug-25 09:22N 60°10' E 024°51'0 0.0
2014-Aug-25 07:07N 60°10' E 024°51'0 0.0
2014-Aug-25 04:07N 60°10' E 024°51'0 0.0
2014-Aug-24 16:31N 60°10' E 024°51'0 0.0
2014-Aug-24 15:19N 60°10' E 024°51'4712.4
2014-Aug-24 11:32N 59°51' E 023°25'  

Dump ship's entire track history